createdAt,value
2023-01-21T00:02:05.438Z,15.70
2023-01-21T00:04:33.950Z,18.20
2023-01-21T00:07:01.940Z,19.10
2023-01-21T00:09:30.137Z,17.60
2023-01-21T00:12:02.606Z,17.90
2023-01-21T00:14:31.146Z,19.50
2023-01-21T00:16:59.759Z,18.70
2023-01-21T00:19:29.209Z,17.10
2023-01-21T00:21:57.226Z,19.50
2023-01-21T00:24:25.423Z,18.20
2023-01-21T00:26:53.755Z,16.10
2023-01-21T00:29:22.007Z,17.80
2023-01-21T00:31:51.174Z,19.30
2023-01-21T00:34:20.479Z,17.80
2023-01-21T00:36:48.499Z,14.70
2023-01-21T00:39:16.881Z,17.80
2023-01-21T00:41:45.266Z,16.70
2023-01-21T00:44:13.236Z,14.70
2023-01-21T00:46:41.162Z,16.00
2023-01-21T00:49:09.416Z,10.90
2023-01-21T00:51:37.384Z,14.10
2023-01-21T00:54:05.537Z,15.40
2023-01-21T00:56:35.998Z,16.50
2023-01-21T00:59:04.271Z,13.10
2023-01-21T01:01:36.471Z,13.30
2023-01-21T01:04:05.521Z,14.90
2023-01-21T01:06:33.856Z,11.80
2023-01-21T01:09:03.892Z,12.20
2023-01-21T01:11:31.961Z,9.80
2023-01-21T01:14:00.157Z,10.90
2023-01-21T01:16:28.293Z,10.20
2023-01-21T01:18:56.338Z,11.60
2023-01-21T01:21:24.675Z,10.80
2023-01-21T01:23:54.202Z,10.60
2023-01-21T01:26:22.919Z,9.00
2023-01-21T01:28:51.042Z,9.40
2023-01-21T01:31:20.855Z,9.30
2023-01-21T01:33:49.138Z,9.20
2023-01-21T01:36:20.285Z,8.90
2023-01-21T01:38:48.246Z,8.70
2023-01-21T01:41:19.404Z,7.60
2023-01-21T01:43:54.114Z,9.30
2023-01-21T01:46:23.504Z,7.40
2023-01-21T01:48:55.989Z,6.90
2023-01-21T01:51:29.759Z,7.80
2023-01-21T01:53:58.451Z,8.10
2023-01-21T01:56:28.315Z,8.30
2023-01-21T01:58:56.971Z,10.00
2023-01-21T02:01:25.330Z,8.70
2023-01-21T02:03:58.855Z,7.00
2023-01-21T02:06:27.653Z,8.70
2023-01-21T02:08:57.096Z,7.40
2023-01-21T02:11:25.078Z,9.30
2023-01-21T02:13:57.441Z,9.00
2023-01-21T02:16:46.715Z,7.80
2023-01-21T02:20:11.488Z,7.30
2023-01-21T02:22:52.061Z,7.40
2023-01-21T02:25:50.135Z,7.50
2023-01-21T02:28:52.739Z,6.40
2023-01-21T02:31:35.422Z,6.50
2023-01-21T02:34:13.760Z,6.00
2023-01-21T02:36:59.537Z,6.10
2023-01-21T02:39:43.688Z,7.30
2023-01-21T02:42:18.107Z,6.50
2023-01-21T02:44:53.857Z,6.40
2023-01-21T02:47:28.283Z,6.80
2023-01-21T02:50:00.894Z,6.30
2023-01-21T02:52:29.018Z,6.10
2023-01-21T02:54:59.038Z,6.20
2023-01-21T02:57:42.460Z,6.60
2023-01-21T03:00:16.893Z,6.00
2023-01-21T03:03:26.260Z,8.40
2023-01-21T03:06:32.319Z,6.40
2023-01-21T03:09:06.851Z,6.50
2023-01-21T03:11:35.434Z,6.00
2023-01-21T03:14:31.137Z,8.00
2023-01-21T03:17:07.411Z,6.70
2023-01-21T03:19:42.757Z,7.60
2023-01-21T03:22:15.024Z,9.10
2023-01-21T03:24:46.861Z,5.70
2023-01-21T03:27:19.778Z,5.40
2023-01-21T03:29:53.805Z,7.30
2023-01-21T03:32:23.707Z,7.50
2023-01-21T03:34:54.624Z,6.10
2023-01-21T03:37:28.446Z,5.40
2023-01-21T03:40:04.992Z,6.30
2023-01-21T03:42:33.744Z,5.70
2023-01-21T03:45:02.295Z,6.40
2023-01-21T03:47:34.546Z,5.40
2023-01-21T03:50:06.731Z,5.90
2023-01-21T03:52:38.479Z,6.40
2023-01-21T03:55:08.248Z,7.20
2023-01-21T03:57:36.346Z,6.80
2023-01-21T04:00:06.660Z,5.30
2023-01-21T04:02:34.785Z,5.50
2023-01-21T04:05:03.274Z,4.90
2023-01-21T04:07:31.309Z,4.90
2023-01-21T04:09:59.261Z,4.40
2023-01-21T04:12:27.282Z,5.10
2023-01-21T04:14:55.245Z,5.60
2023-01-21T04:17:23.421Z,5.70
2023-01-21T04:19:51.446Z,4.30
2023-01-21T04:22:20.031Z,5.30
2023-01-21T04:24:48.052Z,5.30
2023-01-21T04:27:16.121Z,4.50
2023-01-21T04:29:44.106Z,3.60
2023-01-21T04:32:12.171Z,4.50
2023-01-21T04:34:40.141Z,9.70
2023-01-21T04:37:08.216Z,3.20
2023-01-21T04:39:36.198Z,3.30
2023-01-21T04:42:04.772Z,3.00
2023-01-21T04:44:32.829Z,3.00
2023-01-21T04:47:00.810Z,3.00
2023-01-21T04:49:28.987Z,2.80
2023-01-21T04:51:57.274Z,4.40
2023-01-21T04:54:25.557Z,4.50
2023-01-21T04:56:53.705Z,3.10
2023-01-21T04:59:21.839Z,3.00
2023-01-21T05:01:49.879Z,2.90
2023-01-21T05:04:19.040Z,2.50
2023-01-21T05:06:47.150Z,2.20
2023-01-21T05:09:15.106Z,3.00
2023-01-21T05:11:43.003Z,2.20
2023-01-21T05:14:10.945Z,2.10
2023-01-21T05:16:38.909Z,1.90
2023-01-21T05:19:07.149Z,2.30
2023-01-21T05:21:35.578Z,2.40
2023-01-21T05:24:03.756Z,2.00
2023-01-21T05:26:31.703Z,2.40
2023-01-21T05:28:59.600Z,2.40
2023-01-21T05:31:28.335Z,2.10
2023-01-21T05:33:57.521Z,2.20
2023-01-21T05:36:25.758Z,2.10
2023-01-21T05:38:53.732Z,2.20
2023-01-21T05:41:21.878Z,2.10
2023-01-21T05:43:49.873Z,2.10
2023-01-21T05:46:18.667Z,2.00
2023-01-21T05:48:46.629Z,2.10
2023-01-21T05:51:14.586Z,3.50
2023-01-21T05:53:42.517Z,2.30
2023-01-21T05:56:10.476Z,1.70
2023-01-21T05:58:38.420Z,2.10
2023-01-21T06:01:06.489Z,2.00
2023-01-21T06:03:35.062Z,3.40
2023-01-21T06:06:03.286Z,2.30
2023-01-21T06:08:31.428Z,2.20
2023-01-21T06:10:59.402Z,2.20
2023-01-21T06:13:27.671Z,1.70
2023-01-21T06:15:56.150Z,1.70
2023-01-21T06:18:24.901Z,4.20
2023-01-21T06:20:53.024Z,1.90
2023-01-21T06:23:21.551Z,1.90
2023-01-21T06:25:49.476Z,1.90
2023-01-21T06:28:17.405Z,1.80
2023-01-21T06:30:45.524Z,2.60
2023-01-21T06:33:13.535Z,3.30
2023-01-21T06:35:41.434Z,2.20
2023-01-21T06:38:09.326Z,1.80
2023-01-21T06:40:37.260Z,1.90
2023-01-21T06:43:05.372Z,1.90
2023-01-21T06:45:33.282Z,2.10
2023-01-21T06:48:01.416Z,2.60
2023-01-21T06:50:29.516Z,1.90
2023-01-21T06:52:57.697Z,2.00
2023-01-21T06:55:25.669Z,2.90
2023-01-21T06:57:53.611Z,2.40
2023-01-21T07:00:23.003Z,2.10
2023-01-21T07:02:54.961Z,2.00
2023-01-21T07:05:22.972Z,2.40
2023-01-21T07:07:54.847Z,2.40
2023-01-21T07:10:22.977Z,3.10
2023-01-21T07:12:51.838Z,2.80
2023-01-21T07:15:20.038Z,2.20
2023-01-21T07:17:48.112Z,2.50
2023-01-21T07:20:17.106Z,2.20
2023-01-21T07:22:45.060Z,4.90
2023-01-21T07:25:13.025Z,3.10
2023-01-21T07:27:42.035Z,2.40
2023-01-21T07:30:16.930Z,1.90
2023-01-21T07:32:45.178Z,2.30
2023-01-21T07:35:13.533Z,2.40
2023-01-21T07:37:41.524Z,2.20
2023-01-21T07:40:12.330Z,2.30
2023-01-21T07:42:40.247Z,2.40
2023-01-21T07:45:10.249Z,2.30
2023-01-21T07:47:38.716Z,2.70
2023-01-21T07:50:09.228Z,1.90
2023-01-21T07:52:37.273Z,2.40
2023-01-21T07:55:07.990Z,2.40
2023-01-21T07:57:36.200Z,2.20
2023-01-21T08:00:06.657Z,1.90
2023-01-21T08:02:42.425Z,2.30
2023-01-21T08:05:16.713Z,2.50
2023-01-21T08:07:45.176Z,2.10
2023-01-21T08:10:14.565Z,2.30
2023-01-21T08:12:44.391Z,2.00
2023-01-21T08:15:12.983Z,2.60
2023-01-21T08:17:43.085Z,3.40
2023-01-21T08:20:13.058Z,2.10
2023-01-21T08:22:41.128Z,2.20
2023-01-21T08:25:13.323Z,2.10
2023-01-21T08:27:44.187Z,2.30
2023-01-21T08:30:17.535Z,1.90
2023-01-21T08:32:45.501Z,2.10
2023-01-21T08:35:13.657Z,3.60
2023-01-21T08:37:41.643Z,2.00
2023-01-21T08:40:11.919Z,2.20
2023-01-21T08:42:39.886Z,4.20
2023-01-21T08:45:10.384Z,2.10
2023-01-21T08:47:38.278Z,2.50
2023-01-21T08:50:08.852Z,2.30
2023-01-21T08:52:36.824Z,2.30
2023-01-21T08:55:06.028Z,3.40
2023-01-21T08:57:34.016Z,2.90
2023-01-21T09:00:02.165Z,3.10
2023-01-21T09:02:30.393Z,2.60
2023-01-21T09:04:58.560Z,4.00
2023-01-21T09:07:26.523Z,2.80
2023-01-21T09:09:54.462Z,4.30
2023-01-21T09:12:22.473Z,6.40
2023-01-21T09:14:50.521Z,2.90
2023-01-21T09:17:18.491Z,2.60
2023-01-21T09:19:46.519Z,2.90
2023-01-21T09:22:15.211Z,3.00
2023-01-21T09:24:43.424Z,3.00
2023-01-21T09:27:11.711Z,3.20
2023-01-21T09:29:40.960Z,2.90
2023-01-21T09:32:09.442Z,3.40
2023-01-21T09:34:37.679Z,3.10
2023-01-21T09:37:05.642Z,4.70
2023-01-21T09:39:33.587Z,5.30
2023-01-21T09:42:01.703Z,3.60
2023-01-21T09:44:35.148Z,3.90
2023-01-21T09:47:09.483Z,4.40
2023-01-21T09:49:41.337Z,4.30
2023-01-21T09:52:22.237Z,6.30
2023-01-21T09:54:50.552Z,6.20
2023-01-21T09:57:51.849Z,3.90
2023-01-21T10:00:36.683Z,5.90
2023-01-21T10:03:16.993Z,5.00
2023-01-21T10:06:22.060Z,5.50
2023-01-21T10:09:15.402Z,4.30
2023-01-21T10:12:08.110Z,9.50
2023-01-21T10:14:54.088Z,4.50
2023-01-21T10:17:33.546Z,9.20
2023-01-21T10:20:11.799Z,4.90
2023-01-21T10:22:43.900Z,4.70
2023-01-21T10:25:22.626Z,4.30
2023-01-21T10:27:51.000Z,5.30
2023-01-21T10:30:29.937Z,5.90
2023-01-21T10:32:58.494Z,9.10
2023-01-21T10:35:39.288Z,4.50
2023-01-21T10:38:12.646Z,5.90
2023-01-21T10:40:47.099Z,6.00
2023-01-21T10:43:35.626Z,4.40
2023-01-21T10:46:14.889Z,4.40
2023-01-21T10:48:50.383Z,6.30
2023-01-21T10:51:24.725Z,10.10
2023-01-21T10:53:58.795Z,6.10
2023-01-21T10:56:39.929Z,7.20
2023-01-21T10:59:12.276Z,7.30
2023-01-21T11:01:42.897Z,7.50
2023-01-21T11:04:14.909Z,7.30
2023-01-21T11:06:43.900Z,5.70
2023-01-21T11:09:14.917Z,13.70
2023-01-21T11:11:43.418Z,8.70
2023-01-21T11:14:11.365Z,7.50
2023-01-21T11:16:44.248Z,8.20
2023-01-21T11:19:15.703Z,6.60
2023-01-21T11:21:59.336Z,7.30
2023-01-21T11:24:29.070Z,6.60
2023-01-21T11:26:58.864Z,8.30
2023-01-21T11:29:37.945Z,10.20
2023-01-21T11:32:17.971Z,9.50
2023-01-21T11:34:47.884Z,11.10
2023-01-21T11:37:24.007Z,8.10
2023-01-21T11:39:55.614Z,10.10
2023-01-21T11:42:24.593Z,12.80
2023-01-21T11:44:54.681Z,12.70
2023-01-21T11:47:37.740Z,12.30
2023-01-21T11:50:15.666Z,10.00
2023-01-21T11:52:43.919Z,11.40
2023-01-21T11:55:29.180Z,14.40
2023-01-21T11:57:57.395Z,11.70
2023-01-21T12:00:27.781Z,13.60
2023-01-21T12:02:59.869Z,12.40
2023-01-21T12:05:32.063Z,11.70
2023-01-21T12:08:02.153Z,17.10
2023-01-21T12:10:34.521Z,15.40
2023-01-21T12:13:19.439Z,17.30
2023-01-21T12:16:05.494Z,16.30
2023-01-21T12:18:47.595Z,12.30
2023-01-21T12:21:21.989Z,11.90
2023-01-21T12:24:05.858Z,14.00
2023-01-21T12:26:38.778Z,17.20
2023-01-21T12:29:32.113Z,16.40
2023-01-21T12:32:05.492Z,15.40
2023-01-21T12:34:38.547Z,17.00
2023-01-21T12:37:14.225Z,18.50
2023-01-21T12:39:43.254Z,19.10
2023-01-21T12:42:15.555Z,15.70
2023-01-21T12:44:47.890Z,13.70
2023-01-21T12:47:25.295Z,11.30
2023-01-21T12:50:19.996Z,15.20
2023-01-21T12:53:01.986Z,14.60
2023-01-21T12:55:43.559Z,20.40
2023-01-21T12:58:15.444Z,16.70
2023-01-21T13:00:47.245Z,12.50
2023-01-21T13:03:27.765Z,19.70
2023-01-21T13:06:00.878Z,17.80
2023-01-21T13:08:41.618Z,13.00
2023-01-21T13:11:18.334Z,15.70
2023-01-21T13:13:54.871Z,14.90
2023-01-21T13:16:25.993Z,15.10
2023-01-21T13:18:55.983Z,16.40
2023-01-21T13:21:34.687Z,17.90
2023-01-21T13:24:14.486Z,14.30
2023-01-21T13:26:50.064Z,16.00
2023-01-21T13:29:25.987Z,20.50
2023-01-21T13:32:10.517Z,12.30
2023-01-21T13:34:44.870Z,17.70
2023-01-21T13:37:22.995Z,20.10
2023-01-21T13:40:08.195Z,15.20
2023-01-21T13:42:44.007Z,17.50
2023-01-21T13:45:30.377Z,13.60
2023-01-21T13:48:16.659Z,14.20
2023-01-21T13:51:01.066Z,16.90
2023-01-21T13:53:47.193Z,16.20
2023-01-21T13:56:32.046Z,16.10
2023-01-21T13:59:05.817Z,17.70
2023-01-21T14:01:43.542Z,19.00
2023-01-21T14:04:18.212Z,20.10
2023-01-21T14:06:52.807Z,21.10
2023-01-21T14:09:27.337Z,17.10
2023-01-21T14:12:03.225Z,16.30
2023-01-21T14:15:02.899Z,22.20
2023-01-21T14:18:18.708Z,17.20
2023-01-21T14:20:57.190Z,24.00
2023-01-21T14:23:45.534Z,19.80
2023-01-21T14:26:30.643Z,17.00
2023-01-21T14:29:09.981Z,21.80
2023-01-21T14:31:43.193Z,19.90
2023-01-21T14:34:18.612Z,22.80
2023-01-21T14:36:55.791Z,20.10
2023-01-21T14:39:36.366Z,22.70
2023-01-21T14:42:10.151Z,24.70
2023-01-21T14:44:44.567Z,22.60
2023-01-21T14:47:40.294Z,23.00
2023-01-21T14:50:09.852Z,25.10
2023-01-21T14:52:43.424Z,27.50
2023-01-21T14:55:27.884Z,23.60
2023-01-21T14:57:57.505Z,21.20
2023-01-21T15:00:30.263Z,25.00
2023-01-21T15:03:14.483Z,18.20
2023-01-21T15:05:45.053Z,19.80
2023-01-21T15:08:23.440Z,28.50
2023-01-21T15:10:55.824Z,27.50
2023-01-21T15:13:33.954Z,28.70
2023-01-21T15:16:15.103Z,25.00
2023-01-21T15:18:50.309Z,24.00
2023-01-21T15:24:26.684Z,31.50
2023-01-21T15:27:14.361Z,32.80
2023-01-21T15:29:44.220Z,30.70
2023-01-21T15:32:32.867Z,31.50
2023-01-21T15:35:13.620Z,31.40
2023-01-21T15:37:45.796Z,29.40
2023-01-21T15:40:26.371Z,34.30
2023-01-21T15:43:04.197Z,28.30
2023-01-21T15:45:42.279Z,28.60
2023-01-21T15:48:25.334Z,41.40
2023-01-21T15:51:02.663Z,34.60
2023-01-21T15:53:55.960Z,31.40
2023-01-21T15:56:37.977Z,35.10
2023-01-21T15:59:20.708Z,35.90
2023-01-21T16:02:12.782Z,34.90
2023-01-21T16:04:48.160Z,31.70
2023-01-21T16:07:25.035Z,34.60
2023-01-21T16:10:07.219Z,32.60
2023-01-21T16:12:46.791Z,38.50
2023-01-21T16:15:20.582Z,28.30
2023-01-21T16:18:06.896Z,36.10
2023-01-21T16:20:35.511Z,38.10
2023-01-21T16:23:07.045Z,38.80
2023-01-21T16:25:44.551Z,34.40
2023-01-21T16:28:12.604Z,33.20
2023-01-21T16:30:51.574Z,37.70
2023-01-21T16:33:20.114Z,32.30
2023-01-21T16:35:50.862Z,31.10
2023-01-21T16:38:20.445Z,32.20
2023-01-21T16:40:50.545Z,35.70
2023-01-21T16:43:24.600Z,30.60
2023-01-21T16:45:54.487Z,37.60
2023-01-21T16:48:25.160Z,35.50
2023-01-21T16:50:54.383Z,32.50
2023-01-21T16:53:24.328Z,36.60
2023-01-21T16:55:54.820Z,29.10
2023-01-21T16:58:29.040Z,36.70
2023-01-21T17:01:05.972Z,36.10
2023-01-21T17:03:34.675Z,44.00
2023-01-21T17:06:07.986Z,39.60
2023-01-21T17:08:36.444Z,41.20
2023-01-21T17:11:08.522Z,35.00
2023-01-21T17:13:40.687Z,40.30
2023-01-21T17:16:19.713Z,33.60
2023-01-21T17:18:53.865Z,30.80
2023-01-21T17:21:30.616Z,31.50
2023-01-21T17:24:03.259Z,34.70
2023-01-21T17:26:36.374Z,37.40
2023-01-21T17:29:17.202Z,41.40
2023-01-21T17:31:46.089Z,39.90
2023-01-21T17:34:22.411Z,38.30
2023-01-21T17:36:52.432Z,38.80
2023-01-21T17:40:05.760Z,38.60
2023-01-21T17:42:40.376Z,44.50
2023-01-21T17:45:19.771Z,39.10
2023-01-21T17:48:08.061Z,39.70
2023-01-21T17:50:44.037Z,42.40
2023-01-21T17:53:21.972Z,41.00
2023-01-21T17:55:59.360Z,40.80
2023-01-21T17:58:51.312Z,39.40
2023-01-21T18:01:21.425Z,42.00
2023-01-21T18:03:49.752Z,42.20
2023-01-21T18:06:22.547Z,38.40
2023-01-21T18:08:50.544Z,40.20
2023-01-21T18:11:20.012Z,43.00
2023-01-21T18:13:48.313Z,48.20
2023-01-21T18:16:16.611Z,39.10
2023-01-21T18:18:44.969Z,37.30
2023-01-21T18:21:21.196Z,35.00
2023-01-21T18:23:50.054Z,36.10
2023-01-21T18:26:28.118Z,41.10
2023-01-21T18:28:56.214Z,39.00
2023-01-21T18:31:25.437Z,37.50
2023-01-21T18:33:53.985Z,36.10
2023-01-21T18:36:23.734Z,33.60
2023-01-21T18:38:51.975Z,35.60
2023-01-21T18:41:20.188Z,31.00
2023-01-21T18:43:48.614Z,30.50
2023-01-21T18:46:19.028Z,30.80
2023-01-21T18:48:47.043Z,34.20
2023-01-21T18:51:15.129Z,32.10
2023-01-21T18:53:43.360Z,28.40
2023-01-21T18:56:13.810Z,27.70
2023-01-21T18:58:42.184Z,31.30
2023-01-21T19:01:21.790Z,33.10
2023-01-21T19:03:52.201Z,30.80
2023-01-21T19:06:20.535Z,29.90
2023-01-21T19:08:48.677Z,31.80
2023-01-21T19:11:17.457Z,28.20
2023-01-21T19:13:45.747Z,35.00
2023-01-21T19:16:17.493Z,30.50
2023-01-21T19:18:46.132Z,29.00
2023-01-21T19:21:14.082Z,30.60
2023-01-21T19:23:42.450Z,32.70
2023-01-21T19:26:13.492Z,30.30
2023-01-21T19:28:42.021Z,33.50
2023-01-21T19:31:10.274Z,32.30
2023-01-21T19:33:42.190Z,31.90
2023-01-21T19:36:15.750Z,34.50
2023-01-21T19:38:49.603Z,31.20
2023-01-21T19:41:17.694Z,29.20
2023-01-21T19:43:45.902Z,32.80
2023-01-21T19:46:14.174Z,30.30
2023-01-21T19:48:42.328Z,44.00
2023-01-21T19:51:10.419Z,34.60
2023-01-21T19:53:38.719Z,34.80
2023-01-21T19:56:12.168Z,31.80
2023-01-21T19:58:41.473Z,31.60
2023-01-21T20:01:10.800Z,30.40
2023-01-21T20:03:48.124Z,37.00
2023-01-21T20:06:23.606Z,35.00
2023-01-21T20:08:52.191Z,37.60
2023-01-21T20:11:21.431Z,34.40
2023-01-21T20:13:49.597Z,31.30
2023-01-21T20:16:20.207Z,35.70
2023-01-21T20:18:49.287Z,38.20
2023-01-21T20:21:17.313Z,36.20
2023-01-21T20:23:45.411Z,35.30
2023-01-21T20:26:20.719Z,36.10
2023-01-21T20:28:53.784Z,37.70
2023-01-21T20:31:22.046Z,41.60
2023-01-21T20:33:50.176Z,37.60
2023-01-21T20:36:20.961Z,40.60
2023-01-21T20:38:49.409Z,41.00
2023-01-21T20:41:17.428Z,41.30
2023-01-21T20:43:45.500Z,40.60
2023-01-21T20:46:17.526Z,40.70
2023-01-21T20:48:45.630Z,42.30
2023-01-21T20:51:13.786Z,41.40
2023-01-21T20:53:42.024Z,36.00
2023-01-21T20:56:22.862Z,32.70
2023-01-21T20:58:51.411Z,38.90
2023-01-21T21:01:22.923Z,37.10
2023-01-21T21:03:51.429Z,42.30
2023-01-21T21:06:21.976Z,39.60
2023-01-21T21:08:50.472Z,43.20
2023-01-21T21:11:19.197Z,43.40
2023-01-21T21:13:51.117Z,39.80
2023-01-21T21:16:21.768Z,45.20
2023-01-21T21:18:50.785Z,40.10
2023-01-21T21:21:21.687Z,44.90
2023-01-21T21:23:51.661Z,39.20
2023-01-21T21:26:22.447Z,37.60
2023-01-21T21:28:53.876Z,38.10
2023-01-21T21:31:22.882Z,37.30
2023-01-21T21:33:51.003Z,39.70
2023-01-21T21:36:21.030Z,38.10
2023-01-21T21:38:51.513Z,45.80
2023-01-21T21:41:39.866Z,44.30
2023-01-21T21:44:09.253Z,42.70
2023-01-21T21:46:56.883Z,44.90
2023-01-21T21:49:25.090Z,57.00
2023-01-21T21:51:53.323Z,56.90
2023-01-21T21:54:22.151Z,74.60
2023-01-21T21:56:50.033Z,81.30
2023-01-21T21:59:18.017Z,83.10
2023-01-21T22:01:45.958Z,86.30
2023-01-21T22:04:15.119Z,76.50
2023-01-21T22:06:43.125Z,81.90
2023-01-21T22:09:11.398Z,83.80
2023-01-21T22:11:39.355Z,84.70
2023-01-21T22:14:07.873Z,77.60
2023-01-21T22:16:35.940Z,70.20
2023-01-21T22:19:04.134Z,58.20
2023-01-21T22:21:33.657Z,60.60
2023-01-21T22:24:02.174Z,49.20
2023-01-21T22:26:30.384Z,45.00
2023-01-21T22:28:58.741Z,43.60
2023-01-21T22:31:28.484Z,41.50
2023-01-21T22:33:58.228Z,44.20
2023-01-21T22:36:29.276Z,41.70
2023-01-21T22:38:57.912Z,39.20
2023-01-21T22:41:26.793Z,40.70
2023-01-21T22:43:54.779Z,47.80
2023-01-21T22:46:24.597Z,44.50
2023-01-21T22:48:53.700Z,45.20
2023-01-21T22:51:22.320Z,40.90
2023-01-21T22:53:51.281Z,41.50
2023-01-21T22:56:23.405Z,41.00
2023-01-21T22:58:51.589Z,42.70
2023-01-21T23:01:24.461Z,42.40
2023-01-21T23:03:52.921Z,38.20
2023-01-21T23:06:20.940Z,42.80
2023-01-21T23:08:49.147Z,37.60
2023-01-21T23:11:18.809Z,32.20
2023-01-21T23:13:49.372Z,34.00
2023-01-21T23:16:19.299Z,38.00
2023-01-21T23:18:47.949Z,33.70
2023-01-21T23:21:18.216Z,41.80
2023-01-21T23:23:46.519Z,34.80
2023-01-21T23:26:15.452Z,37.00
2023-01-21T23:28:43.425Z,35.00
2023-01-21T23:31:14.118Z,41.00
2023-01-21T23:33:42.294Z,37.10
2023-01-21T23:36:12.623Z,46.40
2023-01-21T23:38:41.590Z,35.10
2023-01-21T23:41:11.425Z,37.60
2023-01-21T23:43:40.225Z,39.50
2023-01-21T23:46:11.014Z,39.20
2023-01-21T23:48:39.617Z,32.20
2023-01-21T23:51:11.355Z,35.00
2023-01-21T23:53:39.275Z,31.70
2023-01-21T23:56:10.440Z,37.40
2023-01-21T23:58:38.776Z,40.40
